sensor_id;sensor_type;location;lat;lon;timestamp;P1;durP1;ratioP1;P2;durP2;ratioP2
1831;SDS011;1680;48.106;11.708;2024-01-30T00:02:19;5.20;;;4.70;;
1831;SDS011;1680;48.106;11.708;2024-01-30T00:04:47;6.53;;;5.28;;
1831;SDS011;1680;48.106;11.708;2024-01-30T00:07:14;5.47;;;4.40;;
1831;SDS011;1680;48.106;11.708;2024-01-30T00:09:41;6.80;;;5.25;;
1831;SDS011;1680;48.106;11.708;2024-01-30T00:12:10;6.28;;;5.35;;
1831;SDS011;1680;48.106;11.708;2024-01-30T00:14:37;6.20;;;4.97;;
1831;SDS011;1680;48.106;11.708;2024-01-30T00:17:05;4.90;;;4.45;;
1831;SDS011;1680;48.106;11.708;2024-01-30T00:19:32;6.18;;;5.22;;
1831;SDS011;1680;48.106;11.708;2024-01-30T00:21:59;5.65;;;5.15;;
1831;SDS011;1680;48.106;11.708;2024-01-30T00:24:26;5.55;;;5.03;;
1831;SDS011;1680;48.106;11.708;2024-01-30T00:26:53;6.85;;;4.95;;
1831;SDS011;1680;48.106;11.708;2024-01-30T00:29:22;6.82;;;5.20;;
1831;SDS011;1680;48.106;11.708;2024-01-30T00:31:54;5.78;;;5.15;;
1831;SDS011;1680;48.106;11.708;2024-01-30T00:34:21;5.90;;;5.22;;
1831;SDS011;1680;48.106;11.708;2024-01-30T00:36:51;5.07;;;4.45;;
1831;SDS011;1680;48.106;11.708;2024-01-30T00:39:19;5.43;;;4.82;;
1831;SDS011;1680;48.106;11.708;2024-01-30T00:41:46;5.25;;;4.65;;
1831;SDS011;1680;48.106;11.708;2024-01-30T00:44:13;6.70;;;5.00;;
1831;SDS011;1680;48.106;11.708;2024-01-30T00:46:41;5.93;;;5.25;;
1831;SDS011;1680;48.106;11.708;2024-01-30T00:49:08;5.30;;;4.80;;
1831;SDS011;1680;48.106;11.708;2024-01-30T00:51:36;5.63;;;5.00;;
1831;SDS011;1680;48.106;11.708;2024-01-30T00:54:04;8.98;;;5.55;;
1831;SDS011;1680;48.106;11.708;2024-01-30T00:56:31;6.03;;;4.97;;
1831;SDS011;1680;48.106;11.708;2024-01-30T00:58:59;6.40;;;5.80;;
1831;SDS011;1680;48.106;11.708;2024-01-30T01:01:26;5.28;;;4.78;;
1831;SDS011;1680;48.106;11.708;2024-01-30T01:03:54;5.97;;;5.03;;
1831;SDS011;1680;48.106;11.708;2024-01-30T01:06:21;6.13;;;5.35;;
1831;SDS011;1680;48.106;11.708;2024-01-30T01:08:49;6.40;;;5.15;;
1831;SDS011;1680;48.106;11.708;2024-01-30T01:11:16;8.05;;;5.80;;
1831;SDS011;1680;48.106;11.708;2024-01-30T01:13:43;6.72;;;5.45;;
1831;SDS011;1680;48.106;11.708;2024-01-30T01:16:10;5.97;;;5.45;;
1831;SDS011;1680;48.106;11.708;2024-01-30T01:18:37;6.18;;;5.05;;
1831;SDS011;1680;48.106;11.708;2024-01-30T01:21:06;7.03;;;5.20;;
1831;SDS011;1680;48.106;11.708;2024-01-30T01:23:33;6.00;;;5.10;;
1831;SDS011;1680;48.106;11.708;2024-01-30T01:26:01;5.95;;;5.18;;
1831;SDS011;1680;48.106;11.708;2024-01-30T01:28:28;5.97;;;5.45;;
1831;SDS011;1680;48.106;11.708;2024-01-30T01:30:55;5.85;;;5.22;;
1831;SDS011;1680;48.106;11.708;2024-01-30T01:33:30;6.63;;;5.13;;
1831;SDS011;1680;48.106;11.708;2024-01-30T01:35:58;6.18;;;5.30;;
1831;SDS011;1680;48.106;11.708;2024-01-30T01:38:28;5.75;;;5.22;;
1831;SDS011;1680;48.106;11.708;2024-01-30T01:40:55;5.97;;;5.20;;
1831;SDS011;1680;48.106;11.708;2024-01-30T01:43:23;5.93;;;5.32;;
1831;SDS011;1680;48.106;11.708;2024-01-30T01:45:50;5.97;;;5.00;;
1831;SDS011;1680;48.106;11.708;2024-01-30T01:48:17;6.80;;;5.72;;
1831;SDS011;1680;48.106;11.708;2024-01-30T01:50:45;5.75;;;5.10;;
1831;SDS011;1680;48.106;11.708;2024-01-30T01:53:12;5.95;;;4.25;;
1831;SDS011;1680;48.106;11.708;2024-01-30T01:55:41;5.45;;;4.90;;
1831;SDS011;1680;48.106;11.708;2024-01-30T01:58:10;5.93;;;5.18;;
1831;SDS011;1680;48.106;11.708;2024-01-30T02:00:39;5.63;;;4.70;;
1831;SDS011;1680;48.106;11.708;2024-01-30T02:03:08;6.55;;;5.18;;
1831;SDS011;1680;48.106;11.708;2024-01-30T02:05:37;7.00;;;5.57;;
1831;SDS011;1680;48.106;11.708;2024-01-30T02:08:05;5.22;;;4.70;;
1831;SDS011;1680;48.106;11.708;2024-01-30T02:10:33;6.25;;;5.30;;
1831;SDS011;1680;48.106;11.708;2024-01-30T02:13:02;5.00;;;4.50;;
1831;SDS011;1680;48.106;11.708;2024-01-30T02:15:29;5.03;;;4.60;;
1831;SDS011;1680;48.106;11.708;2024-01-30T02:17:56;4.40;;;4.00;;
1831;SDS011;1680;48.106;11.708;2024-01-30T02:20:24;5.03;;;4.53;;
1831;SDS011;1680;48.106;11.708;2024-01-30T02:22:54;5.60;;;5.10;;
1831;SDS011;1680;48.106;11.708;2024-01-30T02:25:29;4.85;;;4.35;;
1831;SDS011;1680;48.106;11.708;2024-01-30T02:27:57;5.75;;;4.65;;
1831;SDS011;1680;48.106;11.708;2024-01-30T02:30:25;5.30;;;4.80;;
1831;SDS011;1680;48.106;11.708;2024-01-30T02:32:52;4.88;;;4.03;;
1831;SDS011;1680;48.106;11.708;2024-01-30T02:35:19;5.68;;;4.50;;
1831;SDS011;1680;48.106;11.708;2024-01-30T02:37:46;5.32;;;4.25;;
1831;SDS011;1680;48.106;11.708;2024-01-30T02:40:15;4.95;;;4.45;;
1831;SDS011;1680;48.106;11.708;2024-01-30T02:42:43;5.13;;;4.18;;
1831;SDS011;1680;48.106;11.708;2024-01-30T02:45:10;5.03;;;4.53;;
1831;SDS011;1680;48.106;11.708;2024-01-30T02:47:38;5.40;;;4.40;;
1831;SDS011;1680;48.106;11.708;2024-01-30T02:50:06;5.78;;;4.20;;
1831;SDS011;1680;48.106;11.708;2024-01-30T02:52:34;4.78;;;4.05;;
1831;SDS011;1680;48.106;11.708;2024-01-30T02:55:01;5.20;;;4.70;;
1831;SDS011;1680;48.106;11.708;2024-01-30T02:57:30;4.63;;;4.18;;
1831;SDS011;1680;48.106;11.708;2024-01-30T02:59:58;5.07;;;4.47;;
1831;SDS011;1680;48.106;11.708;2024-01-30T03:02:29;5.75;;;4.10;;
1831;SDS011;1680;48.106;11.708;2024-01-30T03:04:56;4.50;;;3.90;;
1831;SDS011;1680;48.106;11.708;2024-01-30T03:07:24;4.72;;;4.00;;
1831;SDS011;1680;48.106;11.708;2024-01-30T03:09:51;5.25;;;3.85;;
1831;SDS011;1680;48.106;11.708;2024-01-30T03:12:20;4.90;;;4.38;;
1831;SDS011;1680;48.106;11.708;2024-01-30T03:14:49;5.00;;;4.50;;
1831;SDS011;1680;48.106;11.708;2024-01-30T03:17:16;4.43;;;4.03;;
1831;SDS011;1680;48.106;11.708;2024-01-30T03:19:45;4.97;;;3.70;;
1831;SDS011;1680;48.106;11.708;2024-01-30T03:22:12;4.10;;;3.70;;
1831;SDS011;1680;48.106;11.708;2024-01-30T03:24:40;3.90;;;3.50;;
1831;SDS011;1680;48.106;11.708;2024-01-30T03:27:07;4.38;;;3.72;;
1831;SDS011;1680;48.106;11.708;2024-01-30T03:29:34;4.57;;;4.07;;
1831;SDS011;1680;48.106;11.708;2024-01-30T03:32:04;4.25;;;3.80;;
1831;SDS011;1680;48.106;11.708;2024-01-30T03:34:33;3.97;;;3.60;;
1831;SDS011;1680;48.106;11.708;2024-01-30T03:37:00;3.70;;;3.40;;
1831;SDS011;1680;48.106;11.708;2024-01-30T03:39:27;4.10;;;3.13;;
1831;SDS011;1680;48.106;11.708;2024-01-30T03:41:55;3.30;;;3.00;;
1831;SDS011;1680;48.106;11.708;2024-01-30T03:44:22;3.58;;;3.28;;
1831;SDS011;1680;48.106;11.708;2024-01-30T03:46:52;3.53;;;3.22;;
1831;SDS011;1680;48.106;11.708;2024-01-30T03:49:20;3.70;;;3.40;;
1831;SDS011;1680;48.106;11.708;2024-01-30T03:51:47;3.63;;;3.28;;
1831;SDS011;1680;48.106;11.708;2024-01-30T03:54:16;4.30;;;2.90;;
1831;SDS011;1680;48.106;11.708;2024-01-30T03:56:43;4.40;;;3.58;;
1831;SDS011;1680;48.106;11.708;2024-01-30T03:59:10;3.72;;;3.40;;
1831;SDS011;1680;48.106;11.708;2024-01-30T04:01:37;5.35;;;3.30;;
1831;SDS011;1680;48.106;11.708;2024-01-30T04:04:04;3.35;;;2.80;;
1831;SDS011;1680;48.106;11.708;2024-01-30T04:06:33;3.83;;;3.53;;
1831;SDS011;1680;48.106;11.708;2024-01-30T04:09:02;3.67;;;3.25;;
1831;SDS011;1680;48.106;11.708;2024-01-30T04:11:29;3.70;;;3.40;;
1831;SDS011;1680;48.106;11.708;2024-01-30T04:13:56;3.95;;;3.55;;
1831;SDS011;1680;48.106;11.708;2024-01-30T04:16:24;3.78;;;3.38;;
1831;SDS011;1680;48.106;11.708;2024-01-30T04:18:52;3.70;;;3.15;;
1831;SDS011;1680;48.106;11.708;2024-01-30T04:21:20;6.90;;;3.38;;
1831;SDS011;1680;48.106;11.708;2024-01-30T04:23:49;3.50;;;3.20;;
1831;SDS011;1680;48.106;11.708;2024-01-30T04:26:17;3.83;;;3.53;;
1831;SDS011;1680;48.106;11.708;2024-01-30T04:28:44;3.92;;;2.90;;
1831;SDS011;1680;48.106;11.708;2024-01-30T04:31:12;3.40;;;3.10;;
1831;SDS011;1680;48.106;11.708;2024-01-30T04:33:39;2.83;;;2.60;;
1831;SDS011;1680;48.106;11.708;2024-01-30T04:36:08;3.55;;;3.22;;
1831;SDS011;1680;48.106;11.708;2024-01-30T04:38:36;4.10;;;2.80;;
1831;SDS011;1680;48.106;11.708;2024-01-30T04:41:05;3.85;;;3.05;;
1831;SDS011;1680;48.106;11.708;2024-01-30T04:43:32;2.88;;;2.65;;
1831;SDS011;1680;48.106;11.708;2024-01-30T04:45:59;3.05;;;2.75;;
1831;SDS011;1680;48.106;11.708;2024-01-30T04:48:26;3.60;;;2.90;;
1831;SDS011;1680;48.106;11.708;2024-01-30T04:50:53;3.25;;;2.80;;
1831;SDS011;1680;48.106;11.708;2024-01-30T04:53:21;3.10;;;2.58;;
1831;SDS011;1680;48.106;11.708;2024-01-30T04:55:48;3.20;;;2.90;;
1831;SDS011;1680;48.106;11.708;2024-01-30T04:58:17;3.45;;;3.05;;
1831;SDS011;1680;48.106;11.708;2024-01-30T05:00:44;3.67;;;2.83;;
1831;SDS011;1680;48.106;11.708;2024-01-30T05:03:16;2.60;;;2.40;;
1831;SDS011;1680;48.106;11.708;2024-01-30T05:05:43;3.15;;;2.60;;
1831;SDS011;1680;48.106;11.708;2024-01-30T05:08:11;2.50;;;2.30;;
1831;SDS011;1680;48.106;11.708;2024-01-30T05:10:38;2.58;;;2.35;;
1831;SDS011;1680;48.106;11.708;2024-01-30T05:13:05;3.08;;;2.78;;
1831;SDS011;1680;48.106;11.708;2024-01-30T05:15:34;3.90;;;2.67;;
1831;SDS011;1680;48.106;11.708;2024-01-30T05:18:01;2.38;;;2.20;;
1831;SDS011;1680;48.106;11.708;2024-01-30T05:20:28;2.90;;;2.60;;
1831;SDS011;1680;48.106;11.708;2024-01-30T05:22:55;2.50;;;2.30;;
1831;SDS011;1680;48.106;11.708;2024-01-30T05:25:22;2.60;;;2.40;;
1831;SDS011;1680;48.106;11.708;2024-01-30T05:27:50;2.80;;;2.60;;
1831;SDS011;1680;48.106;11.708;2024-01-30T05:30:17;2.60;;;2.40;;
1831;SDS011;1680;48.106;11.708;2024-01-30T05:32:46;2.65;;;2.45;;
1831;SDS011;1680;48.106;11.708;2024-01-30T05:35:13;2.80;;;2.13;;
1831;SDS011;1680;48.106;11.708;2024-01-30T05:37:40;3.00;;;2.50;;
1831;SDS011;1680;48.106;11.708;2024-01-30T05:40:07;2.95;;;2.75;;
1831;SDS011;1680;48.106;11.708;2024-01-30T05:42:35;2.83;;;2.60;;
1831;SDS011;1680;48.106;11.708;2024-01-30T05:45:02;3.03;;;2.83;;
1831;SDS011;1680;48.106;11.708;2024-01-30T05:47:30;3.17;;;2.70;;
1831;SDS011;1680;48.106;11.708;2024-01-30T05:49:59;2.55;;;2.35;;
1831;SDS011;1680;48.106;11.708;2024-01-30T05:52:26;2.67;;;2.30;;
1831;SDS011;1680;48.106;11.708;2024-01-30T05:54:53;2.70;;;2.45;;
1831;SDS011;1680;48.106;11.708;2024-01-30T05:57:20;2.67;;;2.38;;
1831;SDS011;1680;48.106;11.708;2024-01-30T05:59:47;2.70;;;2.03;;
1831;SDS011;1680;48.106;11.708;2024-01-30T06:02:17;2.42;;;2.00;;
1831;SDS011;1680;48.106;11.708;2024-01-30T06:04:44;2.60;;;2.40;;
1831;SDS011;1680;48.106;11.708;2024-01-30T06:07:13;2.50;;;2.30;;
1831;SDS011;1680;48.106;11.708;2024-01-30T06:09:40;3.03;;;2.40;;
1831;SDS011;1680;48.106;11.708;2024-01-30T06:12:08;2.60;;;2.40;;
1831;SDS011;1680;48.106;11.708;2024-01-30T06:14:37;5.05;;;2.58;;
1831;SDS011;1680;48.106;11.708;2024-01-30T06:17:04;2.75;;;2.55;;
1831;SDS011;1680;48.106;11.708;2024-01-30T06:19:31;2.72;;;2.33;;
1831;SDS011;1680;48.106;11.708;2024-01-30T06:22:00;4.32;;;2.22;;
1831;SDS011;1680;48.106;11.708;2024-01-30T06:24:30;4.15;;;2.13;;
1831;SDS011;1680;48.106;11.708;2024-01-30T06:26:58;2.67;;;2.38;;
1831;SDS011;1680;48.106;11.708;2024-01-30T06:29:25;3.10;;;2.50;;
1831;SDS011;1680;48.106;11.708;2024-01-30T06:31:53;2.70;;;2.17;;
1831;SDS011;1680;48.106;11.708;2024-01-30T06:34:21;2.53;;;2.10;;
1831;SDS011;1680;48.106;11.708;2024-01-30T06:36:48;2.70;;;2.00;;
1831;SDS011;1680;48.106;11.708;2024-01-30T06:39:15;3.60;;;2.10;;
1831;SDS011;1680;48.106;11.708;2024-01-30T06:41:44;3.88;;;2.30;;
1831;SDS011;1680;48.106;11.708;2024-01-30T06:44:11;3.08;;;2.33;;
1831;SDS011;1680;48.106;11.708;2024-01-30T06:46:39;2.85;;;2.47;;
1831;SDS011;1680;48.106;11.708;2024-01-30T06:49:06;2.60;;;2.40;;
1831;SDS011;1680;48.106;11.708;2024-01-30T06:51:33;2.30;;;2.08;;
1831;SDS011;1680;48.106;11.708;2024-01-30T06:54:01;1.80;;;1.70;;
1831;SDS011;1680;48.106;11.708;2024-01-30T06:56:29;2.53;;;2.33;;
1831;SDS011;1680;48.106;11.708;2024-01-30T06:58:57;2.17;;;1.90;;
1831;SDS011;1680;48.106;11.708;2024-01-30T07:01:27;2.17;;;1.90;;
1831;SDS011;1680;48.106;11.708;2024-01-30T07:03:55;3.20;;;2.10;;
1831;SDS011;1680;48.106;11.708;2024-01-30T07:06:22;3.60;;;2.30;;
1831;SDS011;1680;48.106;11.708;2024-01-30T07:08:49;3.28;;;2.50;;
1831;SDS011;1680;48.106;11.708;2024-01-30T07:11:18;2.55;;;2.35;;
1831;SDS011;1680;48.106;11.708;2024-01-30T07:13:46;4.30;;;2.70;;
1831;SDS011;1680;48.106;11.708;2024-01-30T07:16:15;2.70;;;2.00;;
1831;SDS011;1680;48.106;11.708;2024-01-30T07:18:43;3.70;;;2.33;;
1831;SDS011;1680;48.106;11.708;2024-01-30T07:21:10;2.67;;;2.47;;
1831;SDS011;1680;48.106;11.708;2024-01-30T07:23:38;3.70;;;2.45;;
1831;SDS011;1680;48.106;11.708;2024-01-30T07:26:06;3.00;;;2.22;;
1831;SDS011;1680;48.106;11.708;2024-01-30T07:28:33;2.30;;;2.10;;
1831;SDS011;1680;48.106;11.708;2024-01-30T07:31:01;2.45;;;2.22;;
1831;SDS011;1680;48.106;11.708;2024-01-30T07:33:32;2.92;;;2.17;;
1831;SDS011;1680;48.106;11.708;2024-01-30T07:35:59;2.88;;;2.00;;
1831;SDS011;1680;48.106;11.708;2024-01-30T07:38:26;2.63;;;2.20;;
1831;SDS011;1680;48.106;11.708;2024-01-30T07:40:54;2.70;;;1.90;;
1831;SDS011;1680;48.106;11.708;2024-01-30T07:43:21;5.43;;;1.92;;
1831;SDS011;1680;48.106;11.708;2024-01-30T07:45:48;3.10;;;2.10;;
1831;SDS011;1680;48.106;11.708;2024-01-30T07:48:15;2.38;;;2.08;;
1831;SDS011;1680;48.106;11.708;2024-01-30T07:50:44;2.70;;;2.40;;
1831;SDS011;1680;48.106;11.708;2024-01-30T07:53:11;3.72;;;2.67;;
1831;SDS011;1680;48.106;11.708;2024-01-30T07:55:39;2.40;;;2.28;;
1831;SDS011;1680;48.106;11.708;2024-01-30T07:58:08;2.92;;;2.30;;
1831;SDS011;1680;48.106;11.708;2024-01-30T08:00:36;2.70;;;2.47;;
1831;SDS011;1680;48.106;11.708;2024-01-30T08:03:03;2.53;;;2.13;;
1831;SDS011;1680;48.106;11.708;2024-01-30T08:05:30;2.40;;;2.20;;
1831;SDS011;1680;48.106;11.708;2024-01-30T08:07:59;2.90;;;2.60;;
1831;SDS011;1680;48.106;11.708;2024-01-30T08:10:26;3.42;;;2.90;;
1831;SDS011;1680;48.106;11.708;2024-01-30T08:12:53;4.28;;;2.70;;
1831;SDS011;1680;48.106;11.708;2024-01-30T08:15:22;3.10;;;2.20;;
1831;SDS011;1680;48.106;11.708;2024-01-30T08:17:49;2.25;;;2.05;;
1831;SDS011;1680;48.106;11.708;2024-01-30T08:20:20;3.15;;;2.60;;
1831;SDS011;1680;48.106;11.708;2024-01-30T08:22:48;2.65;;;2.15;;
1831;SDS011;1680;48.106;11.708;2024-01-30T08:25:17;2.35;;;2.13;;
1831;SDS011;1680;48.106;11.708;2024-01-30T08:27:44;2.75;;;2.20;;
1831;SDS011;1680;48.106;11.708;2024-01-30T08:30:12;2.25;;;2.05;;
1831;SDS011;1680;48.106;11.708;2024-01-30T08:32:39;3.05;;;2.45;;
1831;SDS011;1680;48.106;11.708;2024-01-30T08:35:07;3.00;;;2.70;;
1831;SDS011;1680;48.106;11.708;2024-01-30T08:37:34;3.38;;;2.40;;
1831;SDS011;1680;48.106;11.708;2024-01-30T08:40:02;3.55;;;2.50;;
1831;SDS011;1680;48.106;11.708;2024-01-30T08:42:31;2.72;;;2.50;;
1831;SDS011;1680;48.106;11.708;2024-01-30T08:44:58;3.05;;;2.50;;
1831;SDS011;1680;48.106;11.708;2024-01-30T08:47:26;2.35;;;2.20;;
1831;SDS011;1680;48.106;11.708;2024-01-30T08:49:53;4.57;;;3.15;;
1831;SDS011;1680;48.106;11.708;2024-01-30T08:52:20;4.47;;;3.13;;
1831;SDS011;1680;48.106;11.708;2024-01-30T08:54:50;4.40;;;2.85;;
1831;SDS011;1680;48.106;11.708;2024-01-30T08:57:17;3.55;;;2.70;;
1831;SDS011;1680;48.106;11.708;2024-01-30T08:59:46;2.80;;;2.53;;
1831;SDS011;1680;48.106;11.708;2024-01-30T09:02:13;8.10;;;2.65;;
1831;SDS011;1680;48.106;11.708;2024-01-30T09:04:41;3.78;;;2.60;;
1831;SDS011;1680;48.106;11.708;2024-01-30T09:07:09;4.95;;;2.80;;
1831;SDS011;1680;48.106;11.708;2024-01-30T09:09:38;4.15;;;2.20;;
1831;SDS011;1680;48.106;11.708;2024-01-30T09:12:06;2.75;;;2.28;;
1831;SDS011;1680;48.106;11.708;2024-01-30T09:14:34;2.90;;;2.28;;
1831;SDS011;1680;48.106;11.708;2024-01-30T09:17:03;4.00;;;2.22;;
1831;SDS011;1680;48.106;11.708;2024-01-30T09:19:31;2.63;;;2.22;;
1831;SDS011;1680;48.106;11.708;2024-01-30T09:21:58;3.03;;;2.05;;
1831;SDS011;1680;48.106;11.708;2024-01-30T09:24:25;3.70;;;2.10;;
1831;SDS011;1680;48.106;11.708;2024-01-30T09:26:53;3.73;;;2.30;;
1831;SDS011;1680;48.106;11.708;2024-01-30T09:29:20;4.57;;;2.53;;
1831;SDS011;1680;48.106;11.708;2024-01-30T09:31:48;2.73;;;2.00;;
1831;SDS011;1680;48.106;11.708;2024-01-30T09:34:16;3.53;;;2.20;;
1831;SDS011;1680;48.106;11.708;2024-01-30T09:36:44;3.10;;;2.47;;
1831;SDS011;1680;48.106;11.708;2024-01-30T09:39:11;2.93;;;2.60;;
1831;SDS011;1680;48.106;11.708;2024-01-30T09:41:41;5.17;;;2.53;;
1831;SDS011;1680;48.106;11.708;2024-01-30T09:44:12;30.23;;;8.23;;
1831;SDS011;1680;48.106;11.708;2024-01-30T09:46:39;43.13;;;7.27;;
1831;SDS011;1680;48.106;11.708;2024-01-30T09:49:07;34.13;;;5.87;;
1831;SDS011;1680;48.106;11.708;2024-01-30T09:51:37;4.60;;;3.13;;
1831;SDS011;1680;48.106;11.708;2024-01-30T09:54:05;8.97;;;3.00;;
1831;SDS011;1680;48.106;11.708;2024-01-30T09:56:35;5.90;;;3.20;;
1831;SDS011;1680;48.106;11.708;2024-01-30T09:59:02;10.50;;;4.37;;
1831;SDS011;1680;48.106;11.708;2024-01-30T10:01:29;6.60;;;4.83;;
1831;SDS011;1680;48.106;11.708;2024-01-30T10:03:57;6.70;;;3.30;;
1831;SDS011;1680;48.106;11.708;2024-01-30T10:06:24;5.80;;;3.03;;
1831;SDS011;1680;48.106;11.708;2024-01-30T10:08:53;3.57;;;2.50;;
1831;SDS011;1680;48.106;11.708;2024-01-30T10:11:21;3.20;;;2.40;;
1831;SDS011;1680;48.106;11.708;2024-01-30T10:13:48;3.10;;;2.23;;
1831;SDS011;1680;48.106;11.708;2024-01-30T10:16:16;2.60;;;2.37;;
1831;SDS011;1680;48.106;11.708;2024-01-30T10:18:43;3.53;;;2.27;;
1831;SDS011;1680;48.106;11.708;2024-01-30T10:21:10;2.53;;;2.30;;
1831;SDS011;1680;48.106;11.708;2024-01-30T10:23:37;4.50;;;2.40;;
1831;SDS011;1680;48.106;11.708;2024-01-30T10:26:07;4.33;;;2.60;;
1831;SDS011;1680;48.106;11.708;2024-01-30T10:28:34;2.70;;;2.17;;
1831;SDS011;1680;48.106;11.708;2024-01-30T10:31:01;5.47;;;2.47;;
1831;SDS011;1680;48.106;11.708;2024-01-30T10:33:29;2.57;;;2.20;;
1831;SDS011;1680;48.106;11.708;2024-01-30T10:35:57;2.83;;;2.37;;
1831;SDS011;1680;48.106;11.708;2024-01-30T10:38:28;2.37;;;2.17;;
1831;SDS011;1680;48.106;11.708;2024-01-30T10:40:56;2.63;;;1.90;;
1831;SDS011;1680;48.106;11.708;2024-01-30T10:43:26;2.10;;;1.90;;
1831;SDS011;1680;48.106;11.708;2024-01-30T10:46:03;2.30;;;2.10;;
1831;SDS011;1680;48.106;11.708;2024-01-30T10:48:36;3.00;;;2.33;;
1831;SDS011;1680;48.106;11.708;2024-01-30T10:51:09;2.63;;;2.43;;
1831;SDS011;1680;48.106;11.708;2024-01-30T10:53:38;2.20;;;2.00;;
1831;SDS011;1680;48.106;11.708;2024-01-30T10:56:06;4.30;;;2.60;;
1831;SDS011;1680;48.106;11.708;2024-01-30T10:58:36;5.27;;;2.77;;
1831;SDS011;1680;48.106;11.708;2024-01-30T11:01:03;5.40;;;2.70;;
1831;SDS011;1680;48.106;11.708;2024-01-30T11:03:32;3.40;;;3.00;;
1831;SDS011;1680;48.106;11.708;2024-01-30T11:06:01;4.63;;;3.17;;
1831;SDS011;1680;48.106;11.708;2024-01-30T11:08:32;5.43;;;2.67;;
1831;SDS011;1680;48.106;11.708;2024-01-30T11:11:00;3.93;;;2.60;;
1831;SDS011;1680;48.106;11.708;2024-01-30T11:13:28;3.73;;;2.70;;
1831;SDS011;1680;48.106;11.708;2024-01-30T11:16:01;6.67;;;3.00;;
1831;SDS011;1680;48.106;11.708;2024-01-30T11:18:29;4.57;;;2.57;;
1831;SDS011;1680;48.106;11.708;2024-01-30T11:20:56;8.30;;;2.47;;
1831;SDS011;1680;48.106;11.708;2024-01-30T11:23:26;4.70;;;2.83;;
1831;SDS011;1680;48.106;11.708;2024-01-30T11:25:53;8.60;;;3.10;;
1831;SDS011;1680;48.106;11.708;2024-01-30T11:28:22;8.17;;;2.63;;
1831;SDS011;1680;48.106;11.708;2024-01-30T11:31:04;3.57;;;2.37;;
1831;SDS011;1680;48.106;11.708;2024-01-30T11:33:32;6.37;;;3.13;;
1831;SDS011;1680;48.106;11.708;2024-01-30T11:36:01;5.17;;;2.90;;
1831;SDS011;1680;48.106;11.708;2024-01-30T11:38:28;5.23;;;2.80;;
1831;SDS011;1680;48.106;11.708;2024-01-30T11:40:55;4.43;;;2.40;;
1831;SDS011;1680;48.106;11.708;2024-01-30T11:43:23;4.90;;;2.50;;
1831;SDS011;1680;48.106;11.708;2024-01-30T11:45:51;7.10;;;2.63;;
1831;SDS011;1680;48.106;11.708;2024-01-30T11:48:20;5.77;;;2.20;;
1831;SDS011;1680;48.106;11.708;2024-01-30T11:50:48;4.83;;;2.53;;
1831;SDS011;1680;48.106;11.708;2024-01-30T11:53:16;4.70;;;2.30;;
1831;SDS011;1680;48.106;11.708;2024-01-30T11:55:49;5.27;;;3.00;;
1831;SDS011;1680;48.106;11.708;2024-01-30T11:58:16;5.93;;;2.80;;
1831;SDS011;1680;48.106;11.708;2024-01-30T12:00:52;4.93;;;2.77;;
1831;SDS011;1680;48.106;11.708;2024-01-30T12:03:22;7.30;;;2.80;;
1831;SDS011;1680;48.106;11.708;2024-01-30T12:05:54;5.10;;;2.60;;
1831;SDS011;1680;48.106;11.708;2024-01-30T12:08:22;3.27;;;2.63;;
1831;SDS011;1680;48.106;11.708;2024-01-30T12:10:54;4.73;;;2.67;;
1831;SDS011;1680;48.106;11.708;2024-01-30T12:13:23;4.73;;;2.53;;
1831;SDS011;1680;48.106;11.708;2024-01-30T12:15:50;4.37;;;2.67;;
1831;SDS011;1680;48.106;11.708;2024-01-30T12:18:18;9.33;;;4.13;;
1831;SDS011;1680;48.106;11.708;2024-01-30T12:20:58;4.30;;;3.23;;
1831;SDS011;1680;48.106;11.708;2024-01-30T12:23:26;5.10;;;2.83;;
1831;SDS011;1680;48.106;11.708;2024-01-30T12:25:54;5.60;;;3.17;;
1831;SDS011;1680;48.106;11.708;2024-01-30T12:28:21;5.77;;;3.27;;
1831;SDS011;1680;48.106;11.708;2024-01-30T12:30:48;6.63;;;3.30;;
1831;SDS011;1680;48.106;11.708;2024-01-30T12:33:16;6.07;;;3.43;;
1831;SDS011;1680;48.106;11.708;2024-01-30T12:35:46;5.70;;;3.70;;
1831;SDS011;1680;48.106;11.708;2024-01-30T12:38:15;5.33;;;2.90;;
1831;SDS011;1680;48.106;11.708;2024-01-30T12:40:42;5.40;;;3.40;;
1831;SDS011;1680;48.106;11.708;2024-01-30T12:43:10;6.43;;;3.27;;
1831;SDS011;1680;48.106;11.708;2024-01-30T12:45:38;5.83;;;3.30;;
1831;SDS011;1680;48.106;11.708;2024-01-30T12:48:05;4.43;;;3.10;;
1831;SDS011;1680;48.106;11.708;2024-01-30T12:50:33;7.70;;;3.57;;
1831;SDS011;1680;48.106;11.708;2024-01-30T12:53:00;4.50;;;3.20;;
1831;SDS011;1680;48.106;11.708;2024-01-30T12:55:28;5.30;;;3.37;;
1831;SDS011;1680;48.106;11.708;2024-01-30T12:57:56;5.03;;;3.07;;
1831;SDS011;1680;48.106;11.708;2024-01-30T13:00:23;5.40;;;3.20;;
1831;SDS011;1680;48.106;11.708;2024-01-30T13:02:50;7.43;;;3.50;;
1831;SDS011;1680;48.106;11.708;2024-01-30T13:05:18;5.50;;;3.10;;
1831;SDS011;1680;48.106;11.708;2024-01-30T13:07:45;9.20;;;3.30;;
1831;SDS011;1680;48.106;11.708;2024-01-30T13:10:12;8.33;;;3.50;;
1831;SDS011;1680;48.106;11.708;2024-01-30T13:12:41;8.50;;;3.80;;
1831;SDS011;1680;48.106;11.708;2024-01-30T13:15:09;6.23;;;3.50;;
1831;SDS011;1680;48.106;11.708;2024-01-30T13:17:37;6.23;;;3.53;;
1831;SDS011;1680;48.106;11.708;2024-01-30T13:20:05;6.00;;;3.87;;
1831;SDS011;1680;48.106;11.708;2024-01-30T13:22:34;5.67;;;3.10;;
1831;SDS011;1680;48.106;11.708;2024-01-30T13:25:03;5.60;;;3.10;;
1831;SDS011;1680;48.106;11.708;2024-01-30T13:27:30;5.57;;;3.67;;
1831;SDS011;1680;48.106;11.708;2024-01-30T13:29:59;3.43;;;2.60;;
1831;SDS011;1680;48.106;11.708;2024-01-30T13:32:26;5.57;;;2.87;;
1831;SDS011;1680;48.106;11.708;2024-01-30T13:34:53;4.80;;;3.27;;
1831;SDS011;1680;48.106;11.708;2024-01-30T13:37:21;6.40;;;3.50;;
1831;SDS011;1680;48.106;11.708;2024-01-30T13:39:49;6.83;;;3.30;;
1831;SDS011;1680;48.106;11.708;2024-01-30T13:42:16;4.20;;;3.10;;
1831;SDS011;1680;48.106;11.708;2024-01-30T13:44:44;6.20;;;3.57;;
1831;SDS011;1680;48.106;11.708;2024-01-30T13:47:12;4.13;;;3.20;;
1831;SDS011;1680;48.106;11.708;2024-01-30T13:49:39;6.97;;;3.80;;
1831;SDS011;1680;48.106;11.708;2024-01-30T13:52:07;7.70;;;4.00;;
1831;SDS011;1680;48.106;11.708;2024-01-30T13:54:34;8.60;;;3.57;;
1831;SDS011;1680;48.106;11.708;2024-01-30T13:57:01;7.87;;;3.30;;
1831;SDS011;1680;48.106;11.708;2024-01-30T13:59:28;5.03;;;2.80;;
1831;SDS011;1680;48.106;11.708;2024-01-30T14:01:55;5.83;;;3.07;;
1831;SDS011;1680;48.106;11.708;2024-01-30T14:04:24;5.90;;;3.20;;
1831;SDS011;1680;48.106;11.708;2024-01-30T14:06:51;4.53;;;3.13;;
1831;SDS011;1680;48.106;11.708;2024-01-30T14:09:19;4.07;;;2.90;;
1831;SDS011;1680;48.106;11.708;2024-01-30T14:11:47;4.37;;;2.80;;
1831;SDS011;1680;48.106;11.708;2024-01-30T14:14:15;3.20;;;2.70;;
1831;SDS011;1680;48.106;11.708;2024-01-30T14:16:43;3.40;;;3.10;;
1831;SDS011;1680;48.106;11.708;2024-01-30T14:19:11;5.27;;;2.90;;
1831;SDS011;1680;48.106;11.708;2024-01-30T14:21:40;6.10;;;3.20;;
1831;SDS011;1680;48.106;11.708;2024-01-30T14:24:07;9.50;;;2.93;;
1831;SDS011;1680;48.106;11.708;2024-01-30T14:26:35;6.67;;;3.17;;
1831;SDS011;1680;48.106;11.708;2024-01-30T14:29:02;7.10;;;3.00;;
1831;SDS011;1680;48.106;11.708;2024-01-30T14:31:29;4.43;;;3.43;;
1831;SDS011;1680;48.106;11.708;2024-01-30T14:33:57;6.57;;;3.80;;
1831;SDS011;1680;48.106;11.708;2024-01-30T14:36:24;3.97;;;3.37;;
1831;SDS011;1680;48.106;11.708;2024-01-30T14:38:54;7.93;;;3.27;;
1831;SDS011;1680;48.106;11.708;2024-01-30T14:41:22;9.53;;;3.70;;
1831;SDS011;1680;48.106;11.708;2024-01-30T14:43:49;4.23;;;3.50;;
1831;SDS011;1680;48.106;11.708;2024-01-30T14:46:16;5.00;;;3.20;;
1831;SDS011;1680;48.106;11.708;2024-01-30T14:48:44;12.17;;;4.80;;
1831;SDS011;1680;48.106;11.708;2024-01-30T14:51:11;6.63;;;3.63;;
1831;SDS011;1680;48.106;11.708;2024-01-30T14:53:38;7.87;;;3.53;;
1831;SDS011;1680;48.106;11.708;2024-01-30T14:56:07;7.90;;;3.97;;
1831;SDS011;1680;48.106;11.708;2024-01-30T14:58:35;4.37;;;3.40;;
1831;SDS011;1680;48.106;11.708;2024-01-30T15:01:03;7.13;;;3.47;;
1831;SDS011;1680;48.106;11.708;2024-01-30T15:03:30;11.13;;;4.70;;
1831;SDS011;1680;48.106;11.708;2024-01-30T15:05:58;6.20;;;3.87;;